Krisjanis Valdemars — V7LI9 — position and weather

sailwx.info

Track history (hours):
 
Tides and Currents Weather Stations Pressure Air Temp Water Temp Dewpoint Dewpoint Depression Visibility Wind Speed Wind Dir Waves Ship Positions

Krisjanis Valdemars

Last reported at 2015-Mar-01 15:33 UTC. Time now 2015-Mar-06 00:09 UTC.
Position N 35°60' W 005°28'.

Length 183 m; draft 11.2 m.

Type: Tanker. MMSI: 538002757.

Date/timePositionNaut miles runAvg speedWind from/ knotsBaromVisibWave heightAir tempDewpointWater temp
2015-Mar-01 15:33N 35°60' W 005°28'1010.1
2015-Mar-01 14:33N 36°09' W 005°24'1 0.8
2015-Mar-01 13:16N 36°10' W 005°23'0 0.0
2015-Mar-01 10:10N 36°10' W 005°24'  
2015-Feb-27 01:16N 36°11' W 005°24'3 3.3
2015-Feb-27 00:30N 36°08' W 005°23'5 5.5
2015-Feb-26 23:33N 36°04' W 005°20'0 0.2
2015-Feb-26 22:33N 36°04' W 005°20'1 0.7
2015-Feb-26 21:33N 36°04' W 005°21'3 2.6
2015-Feb-26 20:33N 36°02' W 005°23'  
Track history (hours):
 
Tides and Currents Weather Stations Pressure Air Temp Water Temp Dewpoint Dewpoint Depression Visibility Wind Speed Wind Dir Waves Ship Positions

Krisjanis Valdemars

Last reported at 2015-Mar-01 15:33 UTC. Time now 2015-Mar-06 00:09 UTC.
Position N 35°60' W 005°28'.

Length 183 m; draft 11.2 m.

Type: Tanker. MMSI: 538002757.

Date/timePositionNaut miles runAvg speedWind from/ knotsBaromVisibWave heightAir tempDewpointWater temp
2015-Mar-01 15:33N 35°60' W 005°28'1010.1
2015-Mar-01 14:33N 36°09' W 005°24'1 0.8
2015-Mar-01 13:16N 36°10' W 005°23'0 0.0
2015-Mar-01 10:10N 36°10' W 005°24'  
2015-Feb-27 01:16N 36°11' W 005°24'3 3.3
2015-Feb-27 00:30N 36°08' W 005°23'5 5.5
2015-Feb-26 23:33N 36°04' W 005°20'0 0.2
2015-Feb-26 22:33N 36°04' W 005°20'1 0.7
2015-Feb-26 21:33N 36°04' W 005°21'3 2.6
2015-Feb-26 20:33N 36°02' W 005°23'  

Dump ship's entire track history